Time;durP1;ratioP1;P1;durP2;ratioP2;P2;SDS_P1;SDS_P2;PMS_P1;PMS_P2;Temp;Humidity;BMP_temperature;BMP_pressure;BME280_temperature;BME280_humidity;BME280_pressure;Samples;Min_cycle;Max_cycle;Signal;HPM_P1;HPM_P2
2022/09/13 00:00:54;;;;;;;7.57;5.82;;;;;;;;;;4976772;28;20047;-69
2022/09/13 00:03:20;;;;;;;11.48;6.05;;;;;;;;;;4976501;28;20053;-69
2022/09/13 00:05:46;;;;;;;8.50;6.20;;;;;;;;;;4972535;28;20093;-69
2022/09/13 00:08:13;;;;;;;9.30;6.15;;;;;;;;;;4982413;28;20049;-69
2022/09/13 00:10:40;;;;;;;7.88;6.15;;;;;;;;;;4980706;28;20628;-67
2022/09/13 00:13:07;;;;;;;11.23;5.45;;;;;;;;;;4981169;28;20065;-67
2022/09/13 00:15:33;;;;;;;8.15;6.00;;;;;;;;;;4976534;28;20149;-68
2022/09/13 00:17:58;;;;;;;8.20;6.68;;;;;;;;;;4980982;28;20088;-67
2022/09/13 00:20:24;;;;;;;6.90;5.95;;;;;;;;;;4980824;28;21111;-67
2022/09/13 00:22:50;;;;;;;6.00;5.38;;;;;;;;;;4976070;28;20050;-67
2022/09/13 00:25:15;;;;;;;5.78;5.15;;;;;;;;;;4980405;28;20042;-69
2022/09/13 00:27:43;;;;;;;10.15;6.43;;;;;;;;;;4982090;28;20519;-68
2022/09/13 00:30:09;;;;;;;7.55;5.55;;;;;;;;;;4980609;28;20053;-68
2022/09/13 00:32:35;;;;;;;8.82;6.40;;;;;;;;;;4974518;28;20065;-70
2022/09/13 00:35:02;;;;;;;10.10;6.30;;;;;;;;;;4981509;28;20050;-68
2022/09/13 00:37:28;;;;;;;8.65;6.03;;;;;;;;;;4979084;28;21126;-68
2022/09/13 00:39:53;;;;;;;6.45;5.28;;;;;;;;;;4974902;28;20129;-69
2022/09/13 00:42:28;;;;;;;8.15;6.32;;;;;;;;;;4978350;28;20153;-66
2022/09/13 00:44:56;;;;;;;7.78;5.80;;;;;;;;;;4971608;28;20085;-66
2022/09/13 00:47:33;;;;;;;7.82;6.38;;;;;;;;;;4975716;28;20068;-66
2022/09/13 00:50:14;;;;;;;9.25;6.80;;;;;;;;;;4972044;28;20074;-67
2022/09/13 00:52:43;;;;;;;9.65;7.18;;;;;;;;;;4980845;28;20050;-68
2022/09/13 00:55:15;;;;;;;10.18;6.43;;;;;;;;;;4980760;28;20394;-67
2022/09/13 00:57:41;;;;;;;9.30;6.05;;;;;;;;;;4981175;28;20054;-66
2022/09/13 01:00:13;;;;;;;8.68;6.18;;;;;;;;;;4976582;28;20085;-66
2022/09/13 01:02:50;;;;;;;6.63;5.90;;;;;;;;;;4978300;28;20050;-66
2022/09/13 01:05:17;;;;;;;7.72;5.95;;;;;;;;;;4970416;28;20046;-67
2022/09/13 01:07:43;;;;;;;6.97;5.45;;;;;;;;;;4976863;28;21041;-67
2022/09/13 01:10:09;;;;;;;7.30;5.88;;;;;;;;;;4966280;28;20115;-66
2022/09/13 01:12:45;;;;;;;12.88;6.18;;;;;;;;;;4967320;28;20089;-66
2022/09/13 01:15:11;;;;;;;12.27;7.32;;;;;;;;;;4975106;28;20046;-66
2022/09/13 01:17:38;;;;;;;7.97;6.53;;;;;;;;;;4976433;28;20772;-68
2022/09/13 01:20:07;;;;;;;9.02;6.57;;;;;;;;;;4980014;28;20058;-68
2022/09/13 01:22:51;;;;;;;8.25;6.95;;;;;;;;;;4980609;28;20251;-66
2022/09/13 01:25:35;;;;;;;11.15;6.63;;;;;;;;;;4975175;28;20048;-66
2022/09/13 01:28:07;;;;;;;11.10;7.15;;;;;;;;;;4972962;28;20045;-68
2022/09/13 01:30:39;;;;;;;10.63;7.78;;;;;;;;;;4980677;28;20081;-67
2022/09/13 01:33:14;;;;;;;10.68;8.10;;;;;;;;;;4977467;28;20152;-68
2022/09/13 01:36:15;;;;;;;15.02;8.35;;;;;;;;;;4978720;28;20053;-67
2022/09/13 01:38:50;;;;;;;9.32;7.40;;;;;;;;;;4944371;28;20102;-68
2022/09/13 01:41:23;;;;;;;9.82;7.60;;;;;;;;;;4983932;28;20045;-68
2022/09/13 01:44:04;;;;;;;8.27;7.00;;;;;;;;;;4983459;28;20169;-67
2022/09/13 01:46:37;;;;;;;9.45;7.57;;;;;;;;;;4980086;28;20050;-69
2022/09/13 01:49:16;;;;;;;10.90;7.22;;;;;;;;;;4984125;28;20650;-67
2022/09/13 01:51:55;;;;;;;11.20;7.40;;;;;;;;;;4980606;28;20513;-70
2022/09/13 01:54:51;;;;;;;9.35;7.63;;;;;;;;;;4984104;28;20057;-66
2022/09/13 01:57:42;;;;;;;11.20;7.82;;;;;;;;;;4973391;28;20046;-70
2022/09/13 02:00:11;;;;;;;10.23;8.02;;;;;;;;;;4982763;28;20574;-68
2022/09/13 02:03:10;;;;;;;10.13;8.05;;;;;;;;;;4980912;28;20056;-69
2022/09/13 02:05:44;;;;;;;11.00;7.88;;;;;;;;;;4978018;28;20149;-68
2022/09/13 02:08:27;;;;;;;10.55;7.53;;;;;;;;;;4983449;28;20053;-68
2022/09/13 02:10:55;;;;;;;;;;;;;;;;;;4983844;28;20157;-69
2022/09/13 02:13:25;;;;;;;17.58;8.27;;;;;;;;;;4980421;28;19918;-68
2022/09/13 02:16:02;;;;;;;12.68;8.15;;;;;;;;;;4978737;28;20054;-69
2022/09/13 02:18:36;;;;;;;11.35;7.50;;;;;;;;;;4983825;28;20053;-67
2022/09/13 02:21:09;;;;;;;12.65;7.85;;;;;;;;;;4975753;28;20121;-69
2022/09/13 02:23:41;;;;;;;10.20;8.05;;;;;;;;;;4979993;28;20084;-68
2022/09/13 02:26:09;;;;;;;10.13;8.25;;;;;;;;;;4983602;28;20105;-69
2022/09/13 02:28:39;;;;;;;12.38;8.32;;;;;;;;;;4983896;28;20080;-68
2022/09/13 02:31:08;;;;;;;11.88;8.18;;;;;;;;;;4980101;28;20061;-66
2022/09/13 02:33:50;;;;;;;10.43;8.27;;;;;;;;;;4980310;28;20447;-66
2022/09/13 02:36:21;;;;;;;11.32;8.45;;;;;;;;;;4956919;28;20523;-68
2022/09/13 02:38:59;;;;;;;9.90;8.68;;;;;;;;;;4983233;28;20612;-67
2022/09/13 02:41:47;;;;;;;12.95;9.50;;;;;;;;;;4983491;28;20559;-66
2022/09/13 02:44:22;;;;;;;15.70;9.40;;;;;;;;;;4957119;28;20055;-69
2022/09/13 02:46:50;;;;;;;15.88;9.73;;;;;;;;;;4959337;28;20050;-68
2022/09/13 02:49:32;;;;;;;12.27;9.50;;;;;;;;;;4964052;28;20053;-68
2022/09/13 02:52:15;;;;;;;12.50;9.55;;;;;;;;;;4961842;28;20125;-69
2022/09/13 02:54:53;;;;;;;15.10;10.13;;;;;;;;;;4960014;28;20113;-67
2022/09/13 02:57:31;;;;;;;19.85;10.07;;;;;;;;;;4959876;28;20047;-68
2022/09/13 02:59:57;;;;;;;16.42;9.35;;;;;;;;;;4956425;28;20909;-70
2022/09/13 03:02:28;;;;;;;15.05;10.18;;;;;;;;;;4952847;28;20414;-68
2022/09/13 03:04:53;;;;;;;15.60;10.18;;;;;;;;;;4956745;28;20055;-68
2022/09/13 03:07:19;;;;;;;13.55;9.65;;;;;;;;;;4951721;28;20051;-69
2022/09/13 03:09:53;;;;;;;11.43;9.23;;;;;;;;;;4957502;28;20420;-68
2022/09/13 03:12:43;;;;;;;12.70;9.68;;;;;;;;;;4957746;28;20101;-67
2022/09/13 03:15:28;;;;;;;14.32;9.95;;;;;;;;;;4955746;28;20046;-66
2022/09/13 03:18:00;;;;;;;12.35;9.27;;;;;;;;;;4958695;28;20047;-67
2022/09/13 03:20:42;;;;;;;13.70;9.60;;;;;;;;;;4951414;28;20054;-68
2022/09/13 03:23:32;;;;;;;13.90;9.02;;;;;;;;;;4953900;28;20047;-67
2022/09/13 03:26:24;;;;;;;12.48;8.73;;;;;;;;;;4960975;28;20142;-67
2022/09/13 03:29:11;;;;;;;11.75;9.10;;;;;;;;;;4957786;28;20150;-69
2022/09/13 03:31:58;;;;;;;10.93;8.80;;;;;;;;;;4958216;28;20043;-68
2022/09/13 03:34:49;;;;;;;11.23;8.18;;;;;;;;;;4951216;28;20514;-67
2022/09/13 03:37:30;;;;;;;10.90;8.13;;;;;;;;;;4974206;28;20129;-68
2022/09/13 03:40:08;;;;;;;12.63;9.80;;;;;;;;;;4977506;28;20058;-68
2022/09/13 03:42:41;;;;;;;18.20;12.60;;;;;;;;;;4981955;28;20201;-67
2022/09/13 03:45:08;;;;;;;17.35;12.30;;;;;;;;;;4973722;28;20693;-67
2022/09/13 03:47:36;;;;;;;14.82;10.75;;;;;;;;;;4977444;28;20081;-68
2022/09/13 03:50:06;;;;;;;19.50;10.80;;;;;;;;;;4976598;28;20042;-68
2022/09/13 03:52:32;;;;;;;12.07;9.57;;;;;;;;;;4978222;28;20105;-67
2022/09/13 03:54:58;;;;;;;12.43;9.50;;;;;;;;;;4978973;28;20705;-67
2022/09/13 03:57:23;;;;;;;16.35;11.15;;;;;;;;;;4982047;28;20046;-67
2022/09/13 03:59:51;;;;;;;22.60;13.00;;;;;;;;;;4980772;28;20488;-66
2022/09/13 04:02:17;;;;;;;19.20;12.85;;;;;;;;;;4971692;28;20077;-67
2022/09/13 04:04:44;;;;;;;29.67;14.40;;;;;;;;;;4978975;28;20104;-67
2022/09/13 04:07:56;;;;;;;19.33;12.10;;;;;;;;;;4978653;28;20047;-67
2022/09/13 04:14:09;;;;;;;14.02;9.65;;;;;;;;;;4954539;28;20050;-66
2022/09/13 04:20:23;;;;;;;14.23;9.15;;;;;;;;;;4946398;28;20112;-68
2022/09/13 04:22:53;;;;;;;14.38;10.55;;;;;;;;;;4970371;28;20042;-67
2022/09/13 04:25:19;;;;;;;19.38;10.68;;;;;;;;;;4968252;28;20046;-67
2022/09/13 04:27:45;;;;;;;15.30;10.90;;;;;;;;;;4971079;28;20061;-70
2022/09/13 04:30:11;;;;;;;14.20;10.23;;;;;;;;;;4969305;28;20049;-69
2022/09/13 04:33:43;;;;;;;14.20;10.65;;;;;;;;;;4970949;28;20045;-68
2022/09/13 04:36:10;;;;;;;20.65;10.57;;;;;;;;;;4935761;28;20562;-67
2022/09/13 04:38:36;;;;;;;15.75;10.27;;;;;;;;;;4969230;28;20034;-68
2022/09/13 04:41:02;;;;;;;18.10;10.32;;;;;;;;;;4969295;28;20050;-70
2022/09/13 04:43:28;;;;;;;16.67;9.60;;;;;;;;;;4980994;28;20541;-69
2022/09/13 04:45:53;;;;;;;12.73;9.80;;;;;;;;;;4975253;28;20050;-70
2022/09/13 04:48:19;;;;;;;15.05;9.52;;;;;;;;;;4947536;28;20105;-69
2022/09/13 04:50:44;;;;;;;13.35;8.98;;;;;;;;;;4969350;28;20069;-69
2022/09/13 04:53:10;;;;;;;13.05;9.38;;;;;;;;;;4973048;28;20050;-69
2022/09/13 04:55:36;;;;;;;14.32;9.25;;;;;;;;;;4975505;28;20175;-70
2022/09/13 04:58:02;;;;;;;16.98;9.55;;;;;;;;;;4972947;28;20042;-70
2022/09/13 05:00:28;;;;;;;13.77;8.43;;;;;;;;;;4956261;28;20047;-69
2022/09/13 05:02:55;;;;;;;10.93;8.13;;;;;;;;;;4972022;28;20396;-70
2022/09/13 05:05:21;;;;;;;15.23;8.40;;;;;;;;;;4969881;28;20053;-68
2022/09/13 05:07:49;;;;;;;12.38;8.23;;;;;;;;;;4975520;28;20050;-68
2022/09/13 05:10:15;;;;;;;12.55;7.55;;;;;;;;;;4977720;28;20050;-70
2022/09/13 05:12:40;;;;;;;11.00;7.97;;;;;;;;;;4972476;28;20051;-68
2022/09/13 05:15:06;;;;;;;11.35;7.78;;;;;;;;;;4974368;28;20766;-70
2022/09/13 05:17:32;;;;;;;14.80;7.63;;;;;;;;;;4972181;28;20047;-68
2022/09/13 05:19:57;;;;;;;9.55;6.97;;;;;;;;;;4970112;28;20108;-69
2022/09/13 05:22:22;;;;;;;8.00;6.85;;;;;;;;;;4969397;28;20050;-68
2022/09/13 05:24:48;;;;;;;9.40;7.03;;;;;;;;;;4979821;28;20035;-68
2022/09/13 05:27:13;;;;;;;11.27;7.40;;;;;;;;;;4980704;28;20074;-68
2022/09/13 05:29:39;;;;;;;13.43;7.05;;;;;;;;;;4978670;28;20051;-68
2022/09/13 05:32:04;;;;;;;8.73;6.90;;;;;;;;;;4958244;28;20096;-68
2022/09/13 05:34:29;;;;;;;11.20;7.57;;;;;;;;;;4980187;28;20053;-68
2022/09/13 05:36:55;;;;;;;9.60;6.65;;;;;;;;;;4980714;28;20047;-69
2022/09/13 05:39:23;;;;;;;7.88;6.47;;;;;;;;;;4980293;28;20050;-68
2022/09/13 05:41:49;;;;;;;6.30;5.30;;;;;;;;;;4975816;28;20061;-69
2022/09/13 05:44:14;;;;;;;6.05;4.88;;;;;;;;;;4980431;28;20042;-69
2022/09/13 05:46:41;;;;;;;5.68;4.85;;;;;;;;;;4976056;28;20157;-69
2022/09/13 05:49:06;;;;;;;6.82;4.18;;;;;;;;;;4980473;28;20050;-69
2022/09/13 05:51:32;;;;;;;8.27;4.60;;;;;;;;;;4977558;28;20058;-69
2022/09/13 05:53:58;;;;;;;5.20;3.95;;;;;;;;;;4979026;28;20046;-69
2022/09/13 05:56:27;;;;;;;5.00;4.10;;;;;;;;;;4980273;28;20046;-69
2022/09/13 05:58:53;;;;;;;8.07;4.00;;;;;;;;;;4979746;28;20082;-69
2022/09/13 06:01:23;;;;;;;5.05;3.55;;;;;;;;;;4976364;28;20057;-69
2022/09/13 06:03:54;;;;;;;3.65;3.30;;;;;;;;;;4975937;28;20511;-69
2022/09/13 06:06:20;;;;;;;3.65;3.08;;;;;;;;;;4980342;28;20063;-70
2022/09/13 06:08:46;;;;;;;3.15;2.85;;;;;;;;;;4979955;28;20415;-69
2022/09/13 06:11:14;;;;;;;4.65;3.30;;;;;;;;;;4980611;28;20705;-69
2022/09/13 06:13:41;;;;;;;6.05;3.63;;;;;;;;;;4980434;28;20065;-69
2022/09/13 06:16:09;;;;;;;14.88;4.07;;;;;;;;;;4979111;28;20126;-68
2022/09/13 06:18:34;;;;;;;4.25;3.85;;;;;;;;;;4983600;28;20062;-70
2022/09/13 06:21:03;;;;;;;4.85;3.60;;;;;;;;;;4983647;28;20046;-70
2022/09/13 06:23:29;;;;;;;9.52;3.38;;;;;;;;;;4984212;28;20893;-68
2022/09/13 06:26:09;;;;;;;5.45;2.90;;;;;;;;;;4980971;28;20053;-68
2022/09/13 06:28:36;;;;;;;3.05;2.30;;;;;;;;;;4983767;28;20039;-69
2022/09/13 06:31:08;;;;;;;6.47;2.83;;;;;;;;;;4979285;28;20050;-70
2022/09/13 06:33:36;;;;;;;4.22;2.40;;;;;;;;;;4978629;28;20050;-68
2022/09/13 06:36:03;;;;;;;3.13;2.25;;;;;;;;;;4968987;28;20065;-71
2022/09/13 06:38:29;;;;;;;2.22;2.03;;;;;;;;;;4982358;28;20101;-65
2022/09/13 06:41:03;;;;;;;3.10;2.78;;;;;;;;;;4963566;28;20086;-67
2022/09/13 06:43:29;;;;;;;5.03;2.47;;;;;;;;;;4984913;28;20141;-67
2022/09/13 06:45:58;;;;;;;1.98;1.88;;;;;;;;;;4978733;28;20138;-70
2022/09/13 06:48:24;;;;;;;11.20;2.20;;;;;;;;;;4976665;28;20141;-68
2022/09/13 06:50:49;;;;;;;2.53;2.33;;;;;;;;;;4981995;28;20141;-68
2022/09/13 06:53:15;;;;;;;3.08;2.10;;;;;;;;;;4983145;28;20729;-69
2022/09/13 06:55:40;;;;;;;6.70;2.10;;;;;;;;;;4982845;28;20084;-68
2022/09/13 06:58:05;;;;;;;1.98;1.70;;;;;;;;;;4961199;28;20058;-68
2022/09/13 07:00:31;;;;;;;2.95;2.10;;;;;;;;;;4978822;28;20078;-69
2022/09/13 07:02:56;;;;;;;2.20;1.85;;;;;;;;;;4982152;28;20081;-68
2022/09/13 07:05:22;;;;;;;2.10;2.00;;;;;;;;;;4982890;28;20557;-68
2022/09/13 07:07:47;;;;;;;2.15;1.92;;;;;;;;;;4981986;28;20499;-68
2022/09/13 07:10:13;;;;;;;2.00;1.90;;;;;;;;;;4979101;28;20053;-68
2022/09/13 07:12:41;;;;;;;2.30;2.10;;;;;;;;;;4982542;28;20499;-68
2022/09/13 07:15:07;;;;;;;2.58;2.10;;;;;;;;;;4979722;28;20053;-69
2022/09/13 07:17:32;;;;;;;4.60;1.98;;;;;;;;;;4967425;28;20050;-69
2022/09/13 07:19:58;;;;;;;9.48;1.95;;;;;;;;;;4972493;28;20515;-67
2022/09/13 07:22:26;;;;;;;2.08;1.90;;;;;;;;;;4976814;28;20046;-68
2022/09/13 07:24:52;;;;;;;6.55;1.83;;;;;;;;;;4970412;28;20601;-67
2022/09/13 07:27:18;;;;;;;3.63;1.90;;;;;;;;;;4971927;28;20058;-70
2022/09/13 07:29:43;;;;;;;4.10;2.00;;;;;;;;;;4975627;28;20053;-67
2022/09/13 07:32:08;;;;;;;2.20;2.00;;;;;;;;;;4972497;28;20046;-68
2022/09/13 07:34:34;;;;;;;5.35;2.30;;;;;;;;;;4976143;28;20524;-67
2022/09/13 07:37:00;;;;;;;2.47;2.25;;;;;;;;;;4973814;28;20042;-68
2022/09/13 07:39:25;;;;;;;2.53;1.95;;;;;;;;;;4973132;28;20054;-69
2022/09/13 07:41:52;;;;;;;3.97;2.10;;;;;;;;;;4972518;28;20054;-68
2022/09/13 07:44:18;;;;;;;2.75;2.10;;;;;;;;;;4976570;28;20108;-69
2022/09/13 07:46:43;;;;;;;2.53;2.30;;;;;;;;;;4974662;28;20416;-69
2022/09/13 07:49:15;;;;;;;4.00;2.05;;;;;;;;;;4979837;28;20464;-71
2022/09/13 07:51:41;;;;;;;;;;;;;;;;;;4977435;28;20046;-71
2022/09/13 07:54:14;;;;;;;3.38;1.73;;;;;;;;;;4976565;28;19925;-67
2022/09/13 07:56:40;;;;;;;2.45;2.00;;;;;;;;;;4973460;28;20051;-69
2022/09/13 07:59:10;;;;;;;4.40;1.70;;;;;;;;;;4976290;28;20046;-70
2022/09/13 08:01:38;;;;;;;3.13;1.60;;;;;;;;;;4975085;28;20050;-69
2022/09/13 08:04:06;;;;;;;2.47;1.55;;;;;;;;;;4974260;28;20070;-70
2022/09/13 08:06:33;;;;;;;3.90;1.70;;;;;;;;;;4973761;28;20050;-69
2022/09/13 08:08:59;;;;;;;2.45;1.70;;;;;;;;;;4959581;28;20120;-70
2022/09/13 08:11:39;;;;;;;3.67;1.80;;;;;;;;;;4982266;28;20406;-69
2022/09/13 08:14:06;;;;;;;1.95;1.85;;;;;;;;;;4973432;28;20124;-68
2022/09/13 08:16:32;;;;;;;3.05;1.80;;;;;;;;;;4970637;28;20137;-70
2022/09/13 08:19:00;;;;;;;4.03;1.60;;;;;;;;;;4981006;28;20101;-68
2022/09/13 08:21:32;;;;;;;2.80;1.55;;;;;;;;;;4981981;28;20443;-68
2022/09/13 08:23:59;;;;;;;;;;;;;;;;;;4964009;28;20050;-69
2022/09/13 08:26:28;;;;;;;8.65;1.35;;;;;;;;;;4980491;28;20000;-71
2022/09/13 08:28:59;;;;;;;1.50;1.40;;;;;;;;;;4973081;28;20053;-68
2022/09/13 08:31:25;;;;;;;2.50;1.45;;;;;;;;;;4977143;28;20046;-68
2022/09/13 08:33:51;;;;;;;2.05;1.40;;;;;;;;;;4980256;28;20534;-70
2022/09/13 08:36:17;;;;;;;1.67;1.40;;;;;;;;;;4980161;28;20058;-69
2022/09/13 08:38:51;;;;;;;3.30;1.10;;;;;;;;;;4978342;28;20046;-71
2022/09/13 08:41:31;;;;;;;3.00;1.35;;;;;;;;;;4981604;28;20038;-68
2022/09/13 08:44:11;;;;;;;3.63;1.25;;;;;;;;;;4980440;28;20854;-66
2022/09/13 08:46:45;;;;;;;4.43;1.40;;;;;;;;;;4973389;28;20047;-68
2022/09/13 08:49:13;;;;;;;2.53;1.30;;;;;;;;;;4974708;28;20419;-69
2022/09/13 08:51:50;;;;;;;3.03;1.10;;;;;;;;;;4981378;28;20045;-69
2022/09/13 08:54:17;;;;;;;5.47;1.30;;;;;;;;;;4962483;28;20154;-68
2022/09/13 08:56:58;;;;;;;1.85;1.40;;;;;;;;;;4981099;28;20042;-67
2022/09/13 08:59:45;;;;;;;2.22;1.40;;;;;;;;;;4963349;28;20038;-68
2022/09/13 09:02:29;;;;;;;1.58;1.25;;;;;;;;;;4973957;28;20049;-71
2022/09/13 09:05:09;;;;;;;3.42;1.33;;;;;;;;;;4980597;28;20069;-69
2022/09/13 09:07:44;;;;;;;1.38;1.27;;;;;;;;;;4980007;28;20057;-68
2022/09/13 09:10:20;;;;;;;2.72;1.17;;;;;;;;;;4972384;28;20065;-69
2022/09/13 09:13:11;;;;;;;6.13;1.23;;;;;;;;;;4977489;28;20058;-68
2022/09/13 09:15:43;;;;;;;2.63;1.38;;;;;;;;;;4975022;28;20141;-69
2022/09/13 09:18:13;;;;;;;2.63;1.23;;;;;;;;;;4977314;28;20058;-68
2022/09/13 09:20:43;;;;;;;1.00;0.90;;;;;;;;;;4971578;28;20057;-68
2022/09/13 09:23:17;;;;;;;0.90;0.90;;;;;;;;;;4977990;28;20051;-69
2022/09/13 09:25:44;;;;;;;1.40;1.20;;;;;;;;;;4980437;28;20065;-72
2022/09/13 09:28:14;;;;;;;2.30;0.98;;;;;;;;;;4978257;28;20053;-67
2022/09/13 09:31:04;;;;;;;2.93;1.23;;;;;;;;;;4976369;28;20078;-68
2022/09/13 09:33:38;;;;;;;5.25;1.30;;;;;;;;;;4977109;28;20052;-67
2022/09/13 09:36:17;;;;;;;3.22;1.13;;;;;;;;;;4975858;28;20055;-69
2022/09/13 09:38:43;;;;;;;2.00;1.20;;;;;;;;;;4980178;28;20054;-67
2022/09/13 09:41:27;;;;;;;1.42;1.02;;;;;;;;;;4972250;28;20109;-66
2022/09/13 09:44:02;;;;;;;3.95;1.20;;;;;;;;;;4968456;28;20081;-67
2022/09/13 09:46:32;;;;;;;1.08;1.00;;;;;;;;;;4966113;28;20050;-69
2022/09/13 09:52:28;;;;;;;5.75;1.17;;;;;;;;;;4979177;28;20184;-68
2022/09/13 09:54:59;;;;;;;2.92;0.90;;;;;;;;;;4975829;28;20061;-67
2022/09/13 09:57:57;;;;;;;1.88;1.00;;;;;;;;;;4982754;28;20049;-69
2022/09/13 10:00:30;;;;;;;1.33;1.08;;;;;;;;;;4950310;28;20055;-69
2022/09/13 10:03:00;;;;;;;1.95;1.10;;;;;;;;;;4965787;28;20054;-68
2022/09/13 10:05:26;;;;;;;2.42;1.20;;;;;;;;;;4978557;28;20046;-68
2022/09/13 10:08:04;;;;;;;1.95;1.02;;;;;;;;;;4972015;28;20106;-67
2022/09/13 10:10:34;;;;;;;2.03;1.00;;;;;;;;;;4978759;28;20050;-68
2022/09/13 10:13:00;;;;;;;2.50;0.93;;;;;;;;;;4977446;28;20567;-67
2022/09/13 10:15:32;;;;;;;2.75;1.00;;;;;;;;;;4978694;28;20055;-68
2022/09/13 10:18:13;;;;;;;2.72;1.20;;;;;;;;;;4980644;28;20054;-68
2022/09/13 10:20:39;;;;;;;1.45;1.08;;;;;;;;;;4979735;28;20714;-68
2022/09/13 10:23:13;;;;;;;1.25;0.80;;;;;;;;;;4950178;28;20136;-68
2022/09/13 10:25:40;;;;;;;2.47;1.00;;;;;;;;;;4973011;28;20051;-67
2022/09/13 10:28:12;;;;;;;2.80;1.20;;;;;;;;;;4974821;28;20062;-68
2022/09/13 10:30:46;;;;;;;2.47;1.10;;;;;;;;;;4969546;28;20051;-70
2022/09/13 10:33:23;;;;;;;1.42;1.20;;;;;;;;;;4971451;28;20577;-70
2022/09/13 10:35:52;;;;;;;1.38;1.17;;;;;;;;;;4980062;28;20423;-67
2022/09/13 10:38:26;;;;;;;4.50;1.10;;;;;;;;;;4973028;28;20054;-70
2022/09/13 10:40:51;;;;;;;3.15;1.33;;;;;;;;;;4976899;28;20054;-68
2022/09/13 10:43:18;;;;;;;3.70;1.30;;;;;;;;;;4973517;28;20065;-69
2022/09/13 10:45:48;;;;;;;2.95;0.90;;;;;;;;;;4973681;28;20503;-68
2022/09/13 10:48:15;;;;;;;1.23;1.00;;;;;;;;;;4950841;28;20062;-69
2022/09/13 10:51:00;;;;;;;1.52;1.10;;;;;;;;;;4950495;28;20094;-72
2022/09/13 10:53:34;;;;;;;1.95;1.30;;;;;;;;;;4962686;28;20053;-71
2022/09/13 10:56:01;;;;;;;2.05;1.10;;;;;;;;;;4973460;28;20065;-68
2022/09/13 10:58:27;;;;;;;2.42;1.20;;;;;;;;;;4954215;28;20074;-70
2022/09/13 11:01:21;;;;;;;4.50;0.80;;;;;;;;;;4951732;28;20583;-73
2022/09/13 11:04:18;;;;;;;3.05;1.27;;;;;;;;;;4957790;28;20752;-68
2022/09/13 11:07:04;;;;;;;3.30;0.90;;;;;;;;;;4959350;28;20180;-69
2022/09/13 11:09:40;;;;;;;7.00;1.33;;;;;;;;;;4980327;28;20129;-73
2022/09/13 11:12:44;;;;;;;1.63;1.17;;;;;;;;;;4973830;28;20054;-69
2022/09/13 11:15:26;;;;;;;1.23;1.10;;;;;;;;;;4876681;29;20418;-70
2022/09/13 11:18:09;;;;;;;5.40;1.30;;;;;;;;;;4971838;28;20065;-71
2022/09/13 11:21:09;;;;;;;1.98;0.90;;;;;;;;;;4963653;28;20054;-69
2022/09/13 11:24:03;;;;;;;1.65;0.90;;;;;;;;;;4980267;28;20574;-69
2022/09/13 11:27:08;;;;;;;1.77;0.90;;;;;;;;;;4947637;28;20101;-71
2022/09/13 11:29:36;;;;;;;0.95;0.90;;;;;;;;;;4955174;28;20054;-71
2022/09/13 11:32:23;;;;;;;1.35;0.88;;;;;;;;;;4963835;28;20055;-72
2022/09/13 11:35:33;;;;;;;3.83;1.13;;;;;;;;;;4963005;28;20065;-73
2022/09/13 11:38:36;;;;;;;0.73;0.73;;;;;;;;;;4964740;28;20557;-70
2022/09/13 11:41:21;;;;;;;2.30;1.00;;;;;;;;;;4964123;28;20065;-71
2022/09/13 11:43:53;;;;;;;3.22;0.90;;;;;;;;;;4948195;28;20411;-70
2022/09/13 11:46:59;;;;;;;1.23;1.10;;;;;;;;;;4963236;28;20046;-73
2022/09/13 11:49:42;;;;;;;1.15;0.93;;;;;;;;;;4964825;28;20042;-70
2022/09/13 11:52:25;;;;;;;1.05;0.77;;;;;;;;;;4964448;28;20059;-73
2022/09/13 11:55:13;;;;;;;3.70;0.90;;;;;;;;;;4963812;28;20158;-71
2022/09/13 11:57:48;;;;;;;0.77;0.77;;;;;;;;;;4963522;28;20133;-73
2022/09/13 12:00:40;;;;;;;2.30;1.00;;;;;;;;;;4964009;28;20062;-72
2022/09/13 12:03:09;;;;;;;5.00;1.00;;;;;;;;;;4963576;28;20051;-70
2022/09/13 12:05:40;;;;;;;1.38;0.70;;;;;;;;;;4962758;28;20051;-73
2022/09/13 12:08:16;;;;;;;1.40;0.77;;;;;;;;;;4962943;28;20042;-73
2022/09/13 12:10:58;;;;;;;1.20;0.80;;;;;;;;;;4966605;28;20054;-69
2022/09/13 12:13:30;;;;;;;0.93;0.80;;;;;;;;;;4967179;28;20053;-71
2022/09/13 12:16:01;;;;;;;4.20;0.90;;;;;;;;;;4968668;28;20421;-70
2022/09/13 12:18:35;;;;;;;2.08;0.77;;;;;;;;;;4976229;28;20042;-70
2022/09/13 12:21:10;;;;;;;1.23;0.73;;;;;;;;;;4976974;28;20042;-70
2022/09/13 12:24:07;;;;;;;2.50;0.65;;;;;;;;;;4949857;28;20049;-70
2022/09/13 12:26:40;;;;;;;3.15;0.60;;;;;;;;;;4958856;28;20419;-70
2022/09/13 12:29:26;;;;;;;3.83;0.68;;;;;;;;;;4971849;28;20097;-70
2022/09/13 12:31:57;;;;;;;0.73;0.73;;;;;;;;;;4974907;28;20042;-70
2022/09/13 12:34:28;;;;;;;3.63;0.82;;;;;;;;;;4971698;28;20054;-71
2022/09/13 12:37:15;;;;;;;1.90;0.90;;;;;;;;;;4958109;28;20074;-71
2022/09/13 12:40:03;;;;;;;0.98;0.63;;;;;;;;;;4969115;28;20089;-70
2022/09/13 12:42:38;;;;;;;0.65;0.65;;;;;;;;;;4950886;28;20045;-71
2022/09/13 12:45:14;;;;;;;3.45;0.57;;;;;;;;;;4971704;28;20141;-70
2022/09/13 12:47:47;;;;;;;0.60;0.60;;;;;;;;;;4977941;28;20093;-70
2022/09/13 12:50:35;;;;;;;2.65;0.75;;;;;;;;;;4968578;28;20421;-71
2022/09/13 12:53:11;;;;;;;0.93;0.77;;;;;;;;;;4967555;28;20518;-70
2022/09/13 12:56:02;;;;;;;1.02;0.63;;;;;;;;;;4980148;28;20042;-72
2022/09/13 12:58:36;;;;;;;0.82;0.60;;;;;;;;;;4963590;28;21015;-72
2022/09/13 13:01:14;;;;;;;0.70;0.70;;;;;;;;;;4976980;28;20061;-71
2022/09/13 13:03:53;;;;;;;0.50;0.50;;;;;;;;;;4980296;28;20077;-70
2022/09/13 13:06:48;;;;;;;0.50;0.50;;;;;;;;;;4962777;28;20140;-69
2022/09/13 13:09:42;;;;;;;1.98;0.77;;;;;;;;;;4974071;28;20125;-69
2022/09/13 13:12:10;;;;;;;0.70;0.65;;;;;;;;;;4965547;28;20046;-71
2022/09/13 13:14:38;;;;;;;2.50;0.65;;;;;;;;;;4980870;28;20089;-71
2022/09/13 13:17:41;;;;;;;1.48;0.70;;;;;;;;;;4973687;28;20050;-71
2022/09/13 13:20:38;;;;;;;0.70;0.60;;;;;;;;;;4972649;28;20069;-70
2022/09/13 13:23:15;;;;;;;3.45;0.50;;;;;;;;;;4976697;28;20148;-70
2022/09/13 13:26:12;;;;;;;1.77;0.60;;;;;;;;;;4985047;28;20077;-70
2022/09/13 13:31:30;;;;;;;2.15;0.80;;;;;;;;;;4980734;28;20050;-71
2022/09/13 13:34:05;;;;;;;1.02;0.82;;;;;;;;;;4982727;28;20088;-71
2022/09/13 13:36:39;;;;;;;0.60;0.60;;;;;;;;;;4980803;28;20065;-70
2022/09/13 13:39:12;;;;;;;1.05;0.50;;;;;;;;;;4976742;28;20557;-71
2022/09/13 13:41:51;;;;;;;0.88;0.68;;;;;;;;;;4979236;28;20050;-70
2022/09/13 13:44:19;;;;;;;0.50;0.50;;;;;;;;;;4974877;28;20054;-69
2022/09/13 13:46:47;;;;;;;1.95;0.90;;;;;;;;;;4973426;28;20050;-71
2022/09/13 13:49:28;;;;;;;1.95;0.60;;;;;;;;;;4976126;28;20042;-70
2022/09/13 13:52:09;;;;;;;5.20;0.90;;;;;;;;;;4981044;28;20050;-70
2022/09/13 13:54:40;;;;;;;1.08;0.57;;;;;;;;;;4979237;28;20046;-70
2022/09/13 13:57:27;;;;;;;0.70;0.63;;;;;;;;;;4972088;28;20061;-70
2022/09/13 14:00:14;;;;;;;2.95;0.70;;;;;;;;;;4974737;28;20074;-71
2022/09/13 14:02:48;;;;;;;2.67;0.63;;;;;;;;;;4979007;28;20074;-72
2022/09/13 14:05:28;;;;;;;0.75;0.60;;;;;;;;;;4981502;28;20427;-70
2022/09/13 14:08:13;;;;;;;1.38;0.70;;;;;;;;;;4977305;28;20488;-71
2022/09/13 14:11:05;;;;;;;0.75;0.70;;;;;;;;;;4981179;28;20054;-71
2022/09/13 14:13:48;;;;;;;3.22;0.70;;;;;;;;;;4981390;28;20046;-70
2022/09/13 14:16:21;;;;;;;4.75;0.60;;;;;;;;;;4976059;28;20046;-70
2022/09/13 14:19:01;;;;;;;1.42;0.60;;;;;;;;;;4973310;28;20088;-71
2022/09/13 14:21:29;;;;;;;3.50;0.55;;;;;;;;;;4981651;28;20120;-70
2022/09/13 14:24:22;;;;;;;2.65;0.55;;;;;;;;;;4980549;28;20043;-70
2022/09/13 14:26:56;;;;;;;5.30;0.60;;;;;;;;;;4979808;28;20034;-71
2022/09/13 14:29:24;;;;;;;3.03;0.80;;;;;;;;;;4976784;28;20057;-71
2022/09/13 14:31:53;;;;;;;1.13;0.73;;;;;;;;;;4964760;28;20050;-71
2022/09/13 14:34:25;;;;;;;0.63;0.60;;;;;;;;;;4976967;28;20042;-70
2022/09/13 14:36:57;;;;;;;0.60;0.60;;;;;;;;;;4972799;28;20147;-71
2022/09/13 14:39:23;;;;;;;0.98;0.63;;;;;;;;;;4980954;28;20042;-71
2022/09/13 14:41:58;;;;;;;3.80;1.00;;;;;;;;;;4979647;28;20055;-72
2022/09/13 14:44:25;;;;;;;2.00;0.80;;;;;;;;;;4959169;28;20488;-69
2022/09/13 14:47:05;;;;;;;3.35;0.88;;;;;;;;;;4965528;28;20615;-72
2022/09/13 14:49:46;;;;;;;0.80;0.60;;;;;;;;;;4956776;28;20129;-69
2022/09/13 14:52:23;;;;;;;1.13;0.80;;;;;;;;;;4977015;28;20511;-71
2022/09/13 14:54:56;;;;;;;1.67;0.95;;;;;;;;;;4980220;28;20137;-71
2022/09/13 14:57:45;;;;;;;0.80;0.70;;;;;;;;;;4980772;28;20042;-69
2022/09/13 15:00:17;;;;;;;3.10;0.90;;;;;;;;;;4971508;28;20177;-71
2022/09/13 15:02:53;;;;;;;6.43;0.95;;;;;;;;;;4973610;28;20046;-71
2022/09/13 15:05:22;;;;;;;1.00;0.70;;;;;;;;;;4979526;28;20054;-70
2022/09/13 15:07:48;;;;;;;2.22;0.90;;;;;;;;;;4977767;28;20121;-69
2022/09/13 15:10:16;;;;;;;3.20;0.70;;;;;;;;;;4965241;28;20129;-71
2022/09/13 15:13:01;;;;;;;2.22;1.00;;;;;;;;;;4965191;28;20073;-71
2022/09/13 15:15:44;;;;;;;3.05;0.98;;;;;;;;;;4964477;28;20069;-71
2022/09/13 15:18:24;;;;;;;2.65;0.88;;;;;;;;;;4957621;28;20488;-71
2022/09/13 15:21:00;;;;;;;1.27;1.00;;;;;;;;;;4972940;28;20054;-72
2022/09/13 15:23:27;;;;;;;3.40;1.27;;;;;;;;;;4951925;28;20046;-71
2022/09/13 15:25:58;;;;;;;1.27;0.90;;;;;;;;;;4978365;28;20069;-71
2022/09/13 15:28:27;;;;;;;2.28;0.90;;;;;;;;;;4973897;28;20046;-71
2022/09/13 15:30:55;;;;;;;4.18;1.30;;;;;;;;;;4973294;28;20133;-71
2022/09/13 15:33:32;;;;;;;1.98;1.00;;;;;;;;;;4974682;28;20748;-69